sensor_id;sensor_type;location;lat;lon;timestamp;temperature;humidity
11047;DHT22;5576;50.008;10.596;2023-06-19T00:00:53;21.40;99.90
11047;DHT22;5576;50.008;10.596;2023-06-19T00:03:19;21.30;99.90
11047;DHT22;5576;50.008;10.596;2023-06-19T00:05:45;17.70;99.90
11047;DHT22;5576;50.008;10.596;2023-06-19T00:08:10;21.20;99.90
11047;DHT22;5576;50.008;10.596;2023-06-19T00:10:36;21.20;99.90
11047;DHT22;5576;50.008;10.596;2023-06-19T00:13:02;21.20;99.90
11047;DHT22;5576;50.008;10.596;2023-06-19T00:15:28;21.20;99.90
11047;DHT22;5576;50.008;10.596;2023-06-19T00:17:56;21.10;99.90
11047;DHT22;5576;50.008;10.596;2023-06-19T00:20:23;21.10;99.90
11047;DHT22;5576;50.008;10.596;2023-06-19T00:22:49;19.10;99.90
11047;DHT22;5576;50.008;10.596;2023-06-19T00:25:18;21.10;99.90
11047;DHT22;5576;50.008;10.596;2023-06-19T00:27:45;21.20;99.90
11047;DHT22;5576;50.008;10.596;2023-06-19T00:30:11;21.20;99.90
11047;DHT22;5576;50.008;10.596;2023-06-19T00:32:37;19.20;99.90
11047;DHT22;5576;50.008;10.596;2023-06-19T00:35:13;23.20;99.90
11047;DHT22;5576;50.008;10.596;2023-06-19T00:37:39;19.40;99.90
11047;DHT22;5576;50.008;10.596;2023-06-19T00:40:27;21.00;99.90
11047;DHT22;5576;50.008;10.596;2023-06-19T00:42:54;21.00;99.90
11047;DHT22;5576;50.008;10.596;2023-06-19T00:45:20;21.00;99.90
11047;DHT22;5576;50.008;10.596;2023-06-19T00:47:46;21.00;99.90
11047;DHT22;5576;50.008;10.596;2023-06-19T00:50:12;23.80;99.90
11047;DHT22;5576;50.008;10.596;2023-06-19T00:52:38;23.40;99.90
11047;DHT22;5576;50.008;10.596;2023-06-19T00:55:05;21.00;99.90
11047;DHT22;5576;50.008;10.596;2023-06-19T00:57:33;21.10;99.90
11047;DHT22;5576;50.008;10.596;2023-06-19T00:59:59;21.10;99.90
11047;DHT22;5576;50.008;10.596;2023-06-19T01:02:25;22.30;99.90
11047;DHT22;5576;50.008;10.596;2023-06-19T01:04:52;21.10;99.90
11047;DHT22;5576;50.008;10.596;2023-06-19T01:07:23;18.10;99.90
11047;DHT22;5576;50.008;10.596;2023-06-19T01:09:57;21.10;99.90
11047;DHT22;5576;50.008;10.596;2023-06-19T01:12:33;21.10;99.90
11047;DHT22;5576;50.008;10.596;2023-06-19T01:15:03;20.00;99.90
11047;DHT22;5576;50.008;10.596;2023-06-19T01:17:29;19.40;99.90
11047;DHT22;5576;50.008;10.596;2023-06-19T01:19:57;21.10;99.90
11047;DHT22;5576;50.008;10.596;2023-06-19T01:22:26;21.10;99.90
11047;DHT22;5576;50.008;10.596;2023-06-19T01:24:52;21.10;99.90
11047;DHT22;5576;50.008;10.596;2023-06-19T01:27:18;25.30;99.90
11047;DHT22;5576;50.008;10.596;2023-06-19T01:29:44;21.20;99.90
11047;DHT22;5576;50.008;10.596;2023-06-19T01:32:16;21.30;99.90
11047;DHT22;5576;50.008;10.596;2023-06-19T01:34:44;21.30;99.90
11047;DHT22;5576;50.008;10.596;2023-06-19T01:37:11;21.30;99.90
11047;DHT22;5576;50.008;10.596;2023-06-19T01:39:37;21.20;99.90
11047;DHT22;5576;50.008;10.596;2023-06-19T01:42:05;21.20;99.90
11047;DHT22;5576;50.008;10.596;2023-06-19T01:44:31;21.10;99.90
11047;DHT22;5576;50.008;10.596;2023-06-19T01:46:57;21.10;99.90
11047;DHT22;5576;50.008;10.596;2023-06-19T01:49:23;21.20;99.90
11047;DHT22;5576;50.008;10.596;2023-06-19T01:51:49;24.60;99.90
11047;DHT22;5576;50.008;10.596;2023-06-19T01:54:15;21.50;99.90
11047;DHT22;5576;50.008;10.596;2023-06-19T01:56:41;21.50;99.90
11047;DHT22;5576;50.008;10.596;2023-06-19T01:59:07;21.60;99.90
11047;DHT22;5576;50.008;10.596;2023-06-19T02:01:33;21.70;99.90
11047;DHT22;5576;50.008;10.596;2023-06-19T02:04:00;18.90;99.90
11047;DHT22;5576;50.008;10.596;2023-06-19T02:06:26;21.80;99.90
11047;DHT22;5576;50.008;10.596;2023-06-19T02:08:52;23.10;99.90
11047;DHT22;5576;50.008;10.596;2023-06-19T02:11:18;21.90;99.90
11047;DHT22;5576;50.008;10.596;2023-06-19T02:13:44;21.90;99.90
11047;DHT22;5576;50.008;10.596;2023-06-19T02:16:09;21.80;99.90
11047;DHT22;5576;50.008;10.596;2023-06-19T02:18:35;21.80;99.90
11047;DHT22;5576;50.008;10.596;2023-06-19T02:21:01;21.80;99.90
11047;DHT22;5576;50.008;10.596;2023-06-19T02:23:26;21.60;99.90
11047;DHT22;5576;50.008;10.596;2023-06-19T02:25:52;21.60;99.90
11047;DHT22;5576;50.008;10.596;2023-06-19T02:28:18;21.50;99.90
11047;DHT22;5576;50.008;10.596;2023-06-19T02:30:44;21.50;99.90
11047;DHT22;5576;50.008;10.596;2023-06-19T02:33:09;21.40;99.90
11047;DHT22;5576;50.008;10.596;2023-06-19T02:35:35;22.60;99.90
11047;DHT22;5576;50.008;10.596;2023-06-19T02:38:01;21.40;99.90
11047;DHT22;5576;50.008;10.596;2023-06-19T02:40:26;21.40;99.90
11047;DHT22;5576;50.008;10.596;2023-06-19T02:42:53;21.40;99.90
11047;DHT22;5576;50.008;10.596;2023-06-19T02:45:18;21.40;99.90
11047;DHT22;5576;50.008;10.596;2023-06-19T02:47:44;21.40;99.90
11047;DHT22;5576;50.008;10.596;2023-06-19T02:50:11;21.30;99.90
11047;DHT22;5576;50.008;10.596;2023-06-19T02:52:37;21.20;99.90
11047;DHT22;5576;50.008;10.596;2023-06-19T02:55:02;21.20;99.90
11047;DHT22;5576;50.008;10.596;2023-06-19T02:57:29;21.10;99.90
11047;DHT22;5576;50.008;10.596;2023-06-19T02:59:54;21.10;99.90
11047;DHT22;5576;50.008;10.596;2023-06-19T03:02:20;21.00;99.90
11047;DHT22;5576;50.008;10.596;2023-06-19T03:04:46;21.00;99.90
11047;DHT22;5576;50.008;10.596;2023-06-19T03:07:11;21.00;99.90
11047;DHT22;5576;50.008;10.596;2023-06-19T03:09:39;19.60;99.90
11047;DHT22;5576;50.008;10.596;2023-06-19T03:12:06;20.80;99.90
11047;DHT22;5576;50.008;10.596;2023-06-19T03:14:33;20.70;99.90
11047;DHT22;5576;50.008;10.596;2023-06-19T03:16:58;23.40;99.90
11047;DHT22;5576;50.008;10.596;2023-06-19T03:19:25;20.50;99.90
11047;DHT22;5576;50.008;10.596;2023-06-19T03:21:51;20.50;99.90
11047;DHT22;5576;50.008;10.596;2023-06-19T03:24:17;20.40;99.90
11047;DHT22;5576;50.008;10.596;2023-06-19T03:26:43;20.40;99.90
11047;DHT22;5576;50.008;10.596;2023-06-19T03:29:09;20.50;99.90
11047;DHT22;5576;50.008;10.596;2023-06-19T03:31:49;24.60;99.90
11047;DHT22;5576;50.008;10.596;2023-06-19T03:34:15;20.50;99.90
11047;DHT22;5576;50.008;10.596;2023-06-19T03:36:43;20.40;99.90
11047;DHT22;5576;50.008;10.596;2023-06-19T03:39:10;20.40;99.90
11047;DHT22;5576;50.008;10.596;2023-06-19T03:41:36;19.70;99.90
11047;DHT22;5576;50.008;10.596;2023-06-19T03:44:02;20.30;99.90
11047;DHT22;5576;50.008;10.596;2023-06-19T03:46:28;20.30;99.90
11047;DHT22;5576;50.008;10.596;2023-06-19T03:48:54;20.30;99.90
11047;DHT22;5576;50.008;10.596;2023-06-19T03:51:20;20.40;99.90
11047;DHT22;5576;50.008;10.596;2023-06-19T03:53:45;20.40;99.90
11047;DHT22;5576;50.008;10.596;2023-06-19T03:56:11;20.40;99.90
11047;DHT22;5576;50.008;10.596;2023-06-19T03:58:37;20.40;99.90
11047;DHT22;5576;50.008;10.596;2023-06-19T04:01:03;20.20;99.90
11047;DHT22;5576;50.008;10.596;2023-06-19T04:03:29;20.30;99.90
11047;DHT22;5576;50.008;10.596;2023-06-19T04:05:54;20.40;99.90
11047;DHT22;5576;50.008;10.596;2023-06-19T04:08:20;20.50;99.90
11047;DHT22;5576;50.008;10.596;2023-06-19T04:10:46;23.80;99.90
11047;DHT22;5576;50.008;10.596;2023-06-19T04:13:12;20.80;99.90
11047;DHT22;5576;50.008;10.596;2023-06-19T04:15:38;23.30;99.90
11047;DHT22;5576;50.008;10.596;2023-06-19T04:18:04;20.80;99.90
11047;DHT22;5576;50.008;10.596;2023-06-19T04:20:29;20.80;99.90
11047;DHT22;5576;50.008;10.596;2023-06-19T04:22:55;20.90;99.90
11047;DHT22;5576;50.008;10.596;2023-06-19T04:25:21;20.90;99.90
11047;DHT22;5576;50.008;10.596;2023-06-19T04:27:47;21.00;99.90
11047;DHT22;5576;50.008;10.596;2023-06-19T04:30:13;21.00;99.90
11047;DHT22;5576;50.008;10.596;2023-06-19T04:32:38;20.90;99.90
11047;DHT22;5576;50.008;10.596;2023-06-19T04:35:07;22.10;99.90
11047;DHT22;5576;50.008;10.596;2023-06-19T04:37:33;21.00;99.90
11047;DHT22;5576;50.008;10.596;2023-06-19T04:39:59;24.20;99.90
11047;DHT22;5576;50.008;10.596;2023-06-19T04:42:25;21.00;99.90
11047;DHT22;5576;50.008;10.596;2023-06-19T04:44:52;21.10;99.90
11047;DHT22;5576;50.008;10.596;2023-06-19T04:47:19;21.10;99.90
11047;DHT22;5576;50.008;10.596;2023-06-19T04:49:46;19.20;99.90
11047;DHT22;5576;50.008;10.596;2023-06-19T04:52:12;19.40;99.90
11047;DHT22;5576;50.008;10.596;2023-06-19T04:54:37;21.30;99.90
11047;DHT22;5576;50.008;10.596;2023-06-19T04:57:04;21.30;99.90
11047;DHT22;5576;50.008;10.596;2023-06-19T04:59:30;18.70;99.90
11047;DHT22;5576;50.008;10.596;2023-06-19T05:01:56;24.30;99.90
11047;DHT22;5576;50.008;10.596;2023-06-19T05:04:23;21.10;99.90
11047;DHT22;5576;50.008;10.596;2023-06-19T05:06:49;21.30;99.90
11047;DHT22;5576;50.008;10.596;2023-06-19T05:09:16;24.70;99.90
11047;DHT22;5576;50.008;10.596;2023-06-19T05:11:42;21.40;99.90
11047;DHT22;5576;50.008;10.596;2023-06-19T05:14:07;21.30;99.90
11047;DHT22;5576;50.008;10.596;2023-06-19T05:16:33;21.30;99.90
11047;DHT22;5576;50.008;10.596;2023-06-19T05:19:00;21.30;99.90
11047;DHT22;5576;50.008;10.596;2023-06-19T05:21:26;21.20;99.90
11047;DHT22;5576;50.008;10.596;2023-06-19T05:23:51;21.30;99.90
11047;DHT22;5576;50.008;10.596;2023-06-19T05:26:19;21.30;99.90
11047;DHT22;5576;50.008;10.596;2023-06-19T05:28:46;21.30;99.90
11047;DHT22;5576;50.008;10.596;2023-06-19T05:31:12;21.40;99.90
11047;DHT22;5576;50.008;10.596;2023-06-19T05:33:38;21.50;99.90
11047;DHT22;5576;50.008;10.596;2023-06-19T05:36:04;21.50;99.90
11047;DHT22;5576;50.008;10.596;2023-06-19T05:38:30;21.60;99.90
11047;DHT22;5576;50.008;10.596;2023-06-19T05:40:57;21.60;99.90
11047;DHT22;5576;50.008;10.596;2023-06-19T05:43:22;21.70;99.90
11047;DHT22;5576;50.008;10.596;2023-06-19T05:45:50;25.10;99.90
11047;DHT22;5576;50.008;10.596;2023-06-19T05:48:16;24.30;99.90
11047;DHT22;5576;50.008;10.596;2023-06-19T05:50:41;21.70;99.90
11047;DHT22;5576;50.008;10.596;2023-06-19T05:53:07;21.90;99.90
11047;DHT22;5576;50.008;10.596;2023-06-19T05:55:33;21.80;99.90
11047;DHT22;5576;50.008;10.596;2023-06-19T05:57:58;21.80;99.90
11047;DHT22;5576;50.008;10.596;2023-06-19T06:00:24;21.80;99.90
11047;DHT22;5576;50.008;10.596;2023-06-19T06:02:50;21.80;99.90
11047;DHT22;5576;50.008;10.596;2023-06-19T06:05:18;21.80;99.90
11047;DHT22;5576;50.008;10.596;2023-06-19T06:07:46;21.80;99.90
11047;DHT22;5576;50.008;10.596;2023-06-19T06:10:11;19.30;99.90
11047;DHT22;5576;50.008;10.596;2023-06-19T06:12:37;23.70;99.90
11047;DHT22;5576;50.008;10.596;2023-06-19T06:15:05;21.90;99.90
11047;DHT22;5576;50.008;10.596;2023-06-19T06:17:31;26.00;99.90
11047;DHT22;5576;50.008;10.596;2023-06-19T06:19:57;24.90;99.90
11047;DHT22;5576;50.008;10.596;2023-06-19T06:22:22;21.90;99.90
11047;DHT22;5576;50.008;10.596;2023-06-19T06:24:48;21.90;99.90
11047;DHT22;5576;50.008;10.596;2023-06-19T06:27:14;20.50;99.90
11047;DHT22;5576;50.008;10.596;2023-06-19T06:29:39;22.00;99.90
11047;DHT22;5576;50.008;10.596;2023-06-19T06:32:07;22.00;99.90
11047;DHT22;5576;50.008;10.596;2023-06-19T06:34:33;22.10;99.90
11047;DHT22;5576;50.008;10.596;2023-06-19T06:37:00;22.10;99.90
11047;DHT22;5576;50.008;10.596;2023-06-19T06:39:26;22.20;99.90
11047;DHT22;5576;50.008;10.596;2023-06-19T06:41:52;22.20;99.90
11047;DHT22;5576;50.008;10.596;2023-06-19T06:44:18;22.30;99.90
11047;DHT22;5576;50.008;10.596;2023-06-19T06:46:44;22.40;99.90
11047;DHT22;5576;50.008;10.596;2023-06-19T06:49:10;22.50;99.90
11047;DHT22;5576;50.008;10.596;2023-06-19T06:51:36;22.50;99.90
11047;DHT22;5576;50.008;10.596;2023-06-19T06:54:02;19.60;99.90
11047;DHT22;5576;50.008;10.596;2023-06-19T06:56:28;24.80;99.90
11047;DHT22;5576;50.008;10.596;2023-06-19T06:58:53;22.80;99.90
11047;DHT22;5576;50.008;10.596;2023-06-19T07:01:19;22.80;99.90
11047;DHT22;5576;50.008;10.596;2023-06-19T07:03:44;25.90;99.90
11047;DHT22;5576;50.008;10.596;2023-06-19T07:06:10;19.30;99.90
11047;DHT22;5576;50.008;10.596;2023-06-19T07:08:36;23.00;99.90
11047;DHT22;5576;50.008;10.596;2023-06-19T07:11:02;23.00;99.90
11047;DHT22;5576;50.008;10.596;2023-06-19T07:13:28;23.10;99.90
11047;DHT22;5576;50.008;10.596;2023-06-19T07:15:54;23.10;99.90
11047;DHT22;5576;50.008;10.596;2023-06-19T07:18:20;22.80;99.90
11047;DHT22;5576;50.008;10.596;2023-06-19T07:20:45;24.50;99.90
11047;DHT22;5576;50.008;10.596;2023-06-19T07:23:11;23.20;99.90
11047;DHT22;5576;50.008;10.596;2023-06-19T07:25:37;23.30;99.90
11047;DHT22;5576;50.008;10.596;2023-06-19T07:28:03;21.40;99.90
11047;DHT22;5576;50.008;10.596;2023-06-19T07:30:30;23.40;99.90
11047;DHT22;5576;50.008;10.596;2023-06-19T07:32:56;23.50;99.90
11047;DHT22;5576;50.008;10.596;2023-06-19T07:35:22;23.50;99.90
11047;DHT22;5576;50.008;10.596;2023-06-19T07:37:47;23.50;99.90
11047;DHT22;5576;50.008;10.596;2023-06-19T07:40:13;23.50;99.90
11047;DHT22;5576;50.008;10.596;2023-06-19T07:42:39;23.50;99.90
11047;DHT22;5576;50.008;10.596;2023-06-19T07:45:05;23.50;99.90
11047;DHT22;5576;50.008;10.596;2023-06-19T07:47:31;23.50;99.90
11047;DHT22;5576;50.008;10.596;2023-06-19T07:49:56;23.60;99.90
11047;DHT22;5576;50.008;10.596;2023-06-19T07:52:22;21.50;99.90
11047;DHT22;5576;50.008;10.596;2023-06-19T07:54:52;23.60;99.90
11047;DHT22;5576;50.008;10.596;2023-06-19T07:57:17;23.60;99.90
11047;DHT22;5576;50.008;10.596;2023-06-19T07:59:43;22.40;99.90
11047;DHT22;5576;50.008;10.596;2023-06-19T08:02:10;23.60;99.90
11047;DHT22;5576;50.008;10.596;2023-06-19T08:04:36;23.60;99.90
11047;DHT22;5576;50.008;10.596;2023-06-19T08:07:02;20.00;99.90
11047;DHT22;5576;50.008;10.596;2023-06-19T08:09:27;24.80;99.90
11047;DHT22;5576;50.008;10.596;2023-06-19T08:11:53;23.70;99.90
11047;DHT22;5576;50.008;10.596;2023-06-19T08:14:19;23.70;99.90
11047;DHT22;5576;50.008;10.596;2023-06-19T08:16:45;23.70;99.90
11047;DHT22;5576;50.008;10.596;2023-06-19T08:19:10;22.70;99.90
11047;DHT22;5576;50.008;10.596;2023-06-19T08:21:36;23.80;99.90
11047;DHT22;5576;50.008;10.596;2023-06-19T08:24:02;24.90;99.90
11047;DHT22;5576;50.008;10.596;2023-06-19T08:26:28;23.90;99.90
11047;DHT22;5576;50.008;10.596;2023-06-19T08:28:54;23.90;99.90
11047;DHT22;5576;50.008;10.596;2023-06-19T08:31:19;23.90;99.90
11047;DHT22;5576;50.008;10.596;2023-06-19T08:33:47;24.00;99.90
11047;DHT22;5576;50.008;10.596;2023-06-19T08:36:14;24.00;99.90
11047;DHT22;5576;50.008;10.596;2023-06-19T08:38:40;26.90;99.90
11047;DHT22;5576;50.008;10.596;2023-06-19T08:41:05;24.20;99.90
11047;DHT22;5576;50.008;10.596;2023-06-19T08:43:31;24.20;99.90
11047;DHT22;5576;50.008;10.596;2023-06-19T08:46:09;24.30;99.90
11047;DHT22;5576;50.008;10.596;2023-06-19T08:48:35;24.30;99.90
11047;DHT22;5576;50.008;10.596;2023-06-19T08:51:02;24.40;99.90
11047;DHT22;5576;50.008;10.596;2023-06-19T08:53:32;24.40;99.90
11047;DHT22;5576;50.008;10.596;2023-06-19T08:55:58;21.30;99.90
11047;DHT22;5576;50.008;10.596;2023-06-19T08:58:25;24.40;99.90
11047;DHT22;5576;50.008;10.596;2023-06-19T09:00:51;24.50;99.90
11047;DHT22;5576;50.008;10.596;2023-06-19T09:03:20;24.50;99.90
11047;DHT22;5576;50.008;10.596;2023-06-19T09:05:49;24.60;99.90
11047;DHT22;5576;50.008;10.596;2023-06-19T09:08:15;24.50;99.90
11047;DHT22;5576;50.008;10.596;2023-06-19T09:10:41;23.10;99.90
11047;DHT22;5576;50.008;10.596;2023-06-19T09:13:07;24.80;99.90
11047;DHT22;5576;50.008;10.596;2023-06-19T09:15:35;24.80;99.90
11047;DHT22;5576;50.008;10.596;2023-06-19T09:18:04;26.80;99.90
11047;DHT22;5576;50.008;10.596;2023-06-19T09:20:30;25.00;99.90
11047;DHT22;5576;50.008;10.596;2023-06-19T09:22:58;25.10;99.90
11047;DHT22;5576;50.008;10.596;2023-06-19T09:25:24;28.60;99.90
11047;DHT22;5576;50.008;10.596;2023-06-19T09:27:53;23.90;99.90
11047;DHT22;5576;50.008;10.596;2023-06-19T09:30:19;25.20;99.90
11047;DHT22;5576;50.008;10.596;2023-06-19T09:32:46;25.30;99.90
11047;DHT22;5576;50.008;10.596;2023-06-19T09:35:12;25.30;99.90
11047;DHT22;5576;50.008;10.596;2023-06-19T09:37:39;25.40;99.90
11047;DHT22;5576;50.008;10.596;2023-06-19T09:40:06;25.40;99.90
11047;DHT22;5576;50.008;10.596;2023-06-19T09:42:38;25.50;99.90
11047;DHT22;5576;50.008;10.596;2023-06-19T09:45:07;25.40;99.90
11047;DHT22;5576;50.008;10.596;2023-06-19T09:47:39;25.30;99.90
11047;DHT22;5576;50.008;10.596;2023-06-19T09:50:08;25.40;99.90
11047;DHT22;5576;50.008;10.596;2023-06-19T09:52:36;25.50;99.90
11047;DHT22;5576;50.008;10.596;2023-06-19T09:55:06;25.60;99.90
11047;DHT22;5576;50.008;10.596;2023-06-19T09:57:34;25.80;99.90
11047;DHT22;5576;50.008;10.596;2023-06-19T10:00:02;26.00;99.90
11047;DHT22;5576;50.008;10.596;2023-06-19T10:02:40;26.20;99.90
11047;DHT22;5576;50.008;10.596;2023-06-19T10:05:07;26.40;99.90
11047;DHT22;5576;50.008;10.596;2023-06-19T10:07:37;26.60;99.90
11047;DHT22;5576;50.008;10.596;2023-06-19T10:10:06;26.60;99.90
11047;DHT22;5576;50.008;10.596;2023-06-19T10:12:37;26.60;99.90
11047;DHT22;5576;50.008;10.596;2023-06-19T10:15:13;26.50;99.90
11047;DHT22;5576;50.008;10.596;2023-06-19T10:18:01;27.10;99.90
11047;DHT22;5576;50.008;10.596;2023-06-19T10:23:02;25.00;99.90
11047;DHT22;5576;50.008;10.596;2023-06-19T10:25:31;23.70;99.90
11047;DHT22;5576;50.008;10.596;2023-06-19T10:27:58;23.90;99.90
11047;DHT22;5576;50.008;10.596;2023-06-19T10:30:24;26.50;99.90
11047;DHT22;5576;50.008;10.596;2023-06-19T10:32:50;26.60;99.90
11047;DHT22;5576;50.008;10.596;2023-06-19T10:35:17;26.60;99.90
11047;DHT22;5576;50.008;10.596;2023-06-19T10:37:44;26.70;99.90
11047;DHT22;5576;50.008;10.596;2023-06-19T10:40:11;26.90;99.90
11047;DHT22;5576;50.008;10.596;2023-06-19T10:42:39;27.10;99.90
11047;DHT22;5576;50.008;10.596;2023-06-19T10:45:07;27.30;99.90
11047;DHT22;5576;50.008;10.596;2023-06-19T10:47:34;27.60;99.90
11047;DHT22;5576;50.008;10.596;2023-06-19T10:50:00;27.90;99.90
11047;DHT22;5576;50.008;10.596;2023-06-19T10:52:29;27.90;99.90
11047;DHT22;5576;50.008;10.596;2023-06-19T10:54:56;27.90;99.90
11047;DHT22;5576;50.008;10.596;2023-06-19T10:57:30;27.90;99.90
11047;DHT22;5576;50.008;10.596;2023-06-19T10:59:56;28.50;99.90
11047;DHT22;5576;50.008;10.596;2023-06-19T11:02:22;27.90;99.90
11047;DHT22;5576;50.008;10.596;2023-06-19T11:04:48;27.80;99.90
11047;DHT22;5576;50.008;10.596;2023-06-19T11:07:14;27.60;99.90
11047;DHT22;5576;50.008;10.596;2023-06-19T11:09:40;31.20;99.90
11047;DHT22;5576;50.008;10.596;2023-06-19T11:12:06;27.70;99.90
11047;DHT22;5576;50.008;10.596;2023-06-19T11:14:33;28.00;99.90
11047;DHT22;5576;50.008;10.596;2023-06-19T11:17:06;28.00;99.90
11047;DHT22;5576;50.008;10.596;2023-06-19T11:19:32;27.90;99.90
11047;DHT22;5576;50.008;10.596;2023-06-19T11:21:59;28.00;99.90
11047;DHT22;5576;50.008;10.596;2023-06-19T11:24:29;25.00;99.90
11047;DHT22;5576;50.008;10.596;2023-06-19T11:26:56;28.20;99.90
11047;DHT22;5576;50.008;10.596;2023-06-19T11:29:25;28.00;99.90
11047;DHT22;5576;50.008;10.596;2023-06-19T11:32:04;28.10;99.90
11047;DHT22;5576;50.008;10.596;2023-06-19T11:34:33;30.40;99.90
11047;DHT22;5576;50.008;10.596;2023-06-19T11:36:59;28.20;99.90
11047;DHT22;5576;50.008;10.596;2023-06-19T11:39:24;30.00;99.90
11047;DHT22;5576;50.008;10.596;2023-06-19T11:41:50;28.60;99.90
11047;DHT22;5576;50.008;10.596;2023-06-19T11:44:16;28.90;99.90
11047;DHT22;5576;50.008;10.596;2023-06-19T11:46:43;29.00;99.90
11047;DHT22;5576;50.008;10.596;2023-06-19T11:49:13;28.40;99.90
11047;DHT22;5576;50.008;10.596;2023-06-19T11:51:40;29.30;99.90
11047;DHT22;5576;50.008;10.596;2023-06-19T11:54:07;29.60;99.90
11047;DHT22;5576;50.008;10.596;2023-06-19T11:56:35;29.50;99.90
11047;DHT22;5576;50.008;10.596;2023-06-19T11:59:02;29.40;99.90
11047;DHT22;5576;50.008;10.596;2023-06-19T12:01:29;29.20;99.90
11047;DHT22;5576;50.008;10.596;2023-06-19T12:03:55;29.30;99.90
11047;DHT22;5576;50.008;10.596;2023-06-19T12:06:21;29.40;99.90
11047;DHT22;5576;50.008;10.596;2023-06-19T12:08:47;29.80;99.90
11047;DHT22;5576;50.008;10.596;2023-06-19T12:11:12;29.80;99.90
11047;DHT22;5576;50.008;10.596;2023-06-19T12:13:40;29.60;99.90
11047;DHT22;5576;50.008;10.596;2023-06-19T12:16:07;29.60;99.90
11047;DHT22;5576;50.008;10.596;2023-06-19T12:18:33;29.50;99.90
11047;DHT22;5576;50.008;10.596;2023-06-19T12:20:59;29.40;99.90
11047;DHT22;5576;50.008;10.596;2023-06-19T12:23:24;29.60;99.90
11047;DHT22;5576;50.008;10.596;2023-06-19T12:25:50;29.70;99.90
11047;DHT22;5576;50.008;10.596;2023-06-19T12:28:16;29.80;99.90
11047;DHT22;5576;50.008;10.596;2023-06-19T12:30:45;30.20;99.90
11047;DHT22;5576;50.008;10.596;2023-06-19T12:33:11;30.40;99.90
11047;DHT22;5576;50.008;10.596;2023-06-19T12:35:40;29.30;99.90
11047;DHT22;5576;50.008;10.596;2023-06-19T12:38:06;29.40;99.90
11047;DHT22;5576;50.008;10.596;2023-06-19T12:40:32;30.40;99.90
11047;DHT22;5576;50.008;10.596;2023-06-19T12:42:58;29.50;99.90
11047;DHT22;5576;50.008;10.596;2023-06-19T12:45:24;29.50;99.90
11047;DHT22;5576;50.008;10.596;2023-06-19T12:47:50;29.40;99.90
11047;DHT22;5576;50.008;10.596;2023-06-19T12:50:16;33.20;99.90
11047;DHT22;5576;50.008;10.596;2023-06-19T12:52:41;29.40;99.90
11047;DHT22;5576;50.008;10.596;2023-06-19T12:55:08;29.50;99.90
11047;DHT22;5576;50.008;10.596;2023-06-19T12:57:33;29.60;99.90
11047;DHT22;5576;50.008;10.596;2023-06-19T12:59:59;29.80;99.90
11047;DHT22;5576;50.008;10.596;2023-06-19T13:02:25;29.90;99.90
11047;DHT22;5576;50.008;10.596;2023-06-19T13:04:51;30.00;99.90
11047;DHT22;5576;50.008;10.596;2023-06-19T13:07:17;29.80;99.90
11047;DHT22;5576;50.008;10.596;2023-06-19T13:09:43;29.80;99.90
11047;DHT22;5576;50.008;10.596;2023-06-19T13:12:09;29.60;99.90
11047;DHT22;5576;50.008;10.596;2023-06-19T13:14:35;29.60;99.90
11047;DHT22;5576;50.008;10.596;2023-06-19T13:17:00;29.50;99.90
11047;DHT22;5576;50.008;10.596;2023-06-19T13:19:27;29.40;99.90
11047;DHT22;5576;50.008;10.596;2023-06-19T13:21:53;29.30;99.90
11047;DHT22;5576;50.008;10.596;2023-06-19T13:24:18;30.40;99.90
11047;DHT22;5576;50.008;10.596;2023-06-19T13:26:44;29.30;99.90
11047;DHT22;5576;50.008;10.596;2023-06-19T13:29:11;29.40;99.90
11047;DHT22;5576;50.008;10.596;2023-06-19T13:31:37;29.40;99.90
11047;DHT22;5576;50.008;10.596;2023-06-19T13:34:03;29.50;99.90
11047;DHT22;5576;50.008;10.596;2023-06-19T13:36:29;29.50;99.90
11047;DHT22;5576;50.008;10.596;2023-06-19T13:38:55;30.50;99.90
11047;DHT22;5576;50.008;10.596;2023-06-19T13:41:21;29.60;99.90
11047;DHT22;5576;50.008;10.596;2023-06-19T13:43:50;29.70;99.90
11047;DHT22;5576;50.008;10.596;2023-06-19T13:46:16;29.70;99.90
11047;DHT22;5576;50.008;10.596;2023-06-19T13:48:42;29.90;99.90
11047;DHT22;5576;50.008;10.596;2023-06-19T13:51:08;30.00;99.90
11047;DHT22;5576;50.008;10.596;2023-06-19T13:53:34;30.30;99.90
11047;DHT22;5576;50.008;10.596;2023-06-19T13:55:59;29.40;99.90
11047;DHT22;5576;50.008;10.596;2023-06-19T13:58:25;33.10;99.90
11047;DHT22;5576;50.008;10.596;2023-06-19T14:00:51;30.60;99.90
11047;DHT22;5576;50.008;10.596;2023-06-19T14:03:16;30.30;99.90
11047;DHT22;5576;50.008;10.596;2023-06-19T14:05:42;30.30;99.90
11047;DHT22;5576;50.008;10.596;2023-06-19T14:08:09;30.40;99.90
11047;DHT22;5576;50.008;10.596;2023-06-19T14:10:35;30.50;99.90
11047;DHT22;5576;50.008;10.596;2023-06-19T14:13:01;30.20;99.90
11047;DHT22;5576;50.008;10.596;2023-06-19T14:15:26;30.10;99.90
11047;DHT22;5576;50.008;10.596;2023-06-19T14:17:52;30.10;99.90
11047;DHT22;5576;50.008;10.596;2023-06-19T14:20:18;27.10;99.90
11047;DHT22;5576;50.008;10.596;2023-06-19T14:22:44;29.80;99.90
11047;DHT22;5576;50.008;10.596;2023-06-19T14:25:09;29.60;99.90
11047;DHT22;5576;50.008;10.596;2023-06-19T14:27:35;29.80;99.90
11047;DHT22;5576;50.008;10.596;2023-06-19T14:30:01;30.00;99.90
11047;DHT22;5576;50.008;10.596;2023-06-19T14:32:26;30.10;99.90
11047;DHT22;5576;50.008;10.596;2023-06-19T14:34:52;30.40;99.90
11047;DHT22;5576;50.008;10.596;2023-06-19T14:37:18;30.60;99.90
11047;DHT22;5576;50.008;10.596;2023-06-19T14:39:44;30.80;99.90
11047;DHT22;5576;50.008;10.596;2023-06-19T14:42:10;30.20;99.90
11047;DHT22;5576;50.008;10.596;2023-06-19T14:44:36;31.00;99.90
11047;DHT22;5576;50.008;10.596;2023-06-19T14:47:02;31.10;99.90
11047;DHT22;5576;50.008;10.596;2023-06-19T14:49:28;31.10;99.90
11047;DHT22;5576;50.008;10.596;2023-06-19T14:51:54;32.50;99.90
11047;DHT22;5576;50.008;10.596;2023-06-19T14:54:22;30.10;99.90
11047;DHT22;5576;50.008;10.596;2023-06-19T14:56:48;30.80;99.90
11047;DHT22;5576;50.008;10.596;2023-06-19T14:59:15;30.60;99.90
11047;DHT22;5576;50.008;10.596;2023-06-19T15:01:41;30.50;99.90
11047;DHT22;5576;50.008;10.596;2023-06-19T15:04:07;30.50;99.90
11047;DHT22;5576;50.008;10.596;2023-06-19T15:06:33;30.50;99.90
11047;DHT22;5576;50.008;10.596;2023-06-19T15:08:59;30.50;99.90
11047;DHT22;5576;50.008;10.596;2023-06-19T15:11:24;30.60;99.90
11047;DHT22;5576;50.008;10.596;2023-06-19T15:13:50;28.70;99.90
11047;DHT22;5576;50.008;10.596;2023-06-19T15:16:16;30.30;99.90
11047;DHT22;5576;50.008;10.596;2023-06-19T15:18:43;33.40;99.90
11047;DHT22;5576;50.008;10.596;2023-06-19T15:21:09;30.10;99.90
11047;DHT22;5576;50.008;10.596;2023-06-19T15:23:35;30.00;99.90
11047;DHT22;5576;50.008;10.596;2023-06-19T15:26:00;30.00;99.90
11047;DHT22;5576;50.008;10.596;2023-06-19T15:28:26;28.40;99.90